Time;durP1;ratioP1;P1;durP2;ratioP2;P2;SDS_P1;SDS_P2;PMS_P1;PMS_P2;Temp;Humidity;BMP_temperature;BMP_pressure;BME280_temperature;BME280_humidity;BME280_pressure;Samples;Min_cycle;Max_cycle;Signal;HPM_P1;HPM_P2
2024/01/26 00:00:51;;;;;;;3.17;1.08;;;6.50;99.90;;;;;;5015615;28;20106;-68
2024/01/26 00:03:17;;;;;;;5.30;1.30;;;6.50;99.90;;;;;;5011013;28;20052;-68
2024/01/26 00:05:42;;;;;;;3.35;1.05;;;6.40;99.90;;;;;;5021536;28;20398;-68
2024/01/26 00:08:08;;;;;;;6.78;1.38;;;6.50;99.90;;;;;;5019166;28;20029;-68
2024/01/26 00:10:33;;;;;;;4.07;1.40;;;6.40;99.90;;;;;;5023302;28;20397;-66
2024/01/26 00:12:59;;;;;;;3.92;0.98;;;6.40;99.90;;;;;;5020682;28;20262;-66
2024/01/26 00:15:26;;;;;;;4.07;1.38;;;6.40;99.90;;;;;;5019196;28;20762;-65
2024/01/26 00:17:52;;;;;;;4.28;0.98;;;6.40;99.90;;;;;;5024883;28;20036;-66
2024/01/26 00:20:17;;;;;;;5.05;1.33;;;6.30;99.90;;;;;;5017328;28;22030;-65
2024/01/26 00:22:43;;;;;;;3.90;1.17;;;6.30;99.90;;;;;;5018898;28;20033;-65
2024/01/26 00:25:09;;;;;;;2.53;1.08;;;6.30;99.90;;;;;;5003738;28;20175;-65
2024/01/26 00:27:35;;;;;;;2.80;0.90;;;6.30;99.90;;;;;;5018370;28;20048;-65
2024/01/26 00:30:01;;;;;;;5.60;0.93;;;6.30;99.90;;;;;;5004633;28;20029;-66
2024/01/26 00:32:27;;;;;;;4.70;1.02;;;6.30;99.90;;;;;;5014935;28;20060;-65
2024/01/26 00:34:52;;;;;;;5.68;1.00;;;6.20;99.90;;;;;;5021446;28;20029;-65
2024/01/26 00:37:18;;;;;;;5.88;0.98;;;6.20;99.90;;;;;;5020743;28;20689;-65
2024/01/26 00:39:43;;;;;;;3.60;0.80;;;6.20;99.90;;;;;;5022984;28;20047;-66
2024/01/26 00:42:09;;;;;;;9.15;1.38;;;6.30;99.90;;;;;;5017672;28;20496;-65
2024/01/26 00:44:36;;;;;;;8.68;2.83;;;6.30;99.90;;;;;;5018001;28;20204;-67
2024/01/26 00:47:03;;;;;;;4.80;1.50;;;6.40;99.90;;;;;;5022865;28;20029;-68
2024/01/26 00:49:29;;;;;;;4.03;1.45;;;6.40;99.90;;;;;;5022212;28;20028;-68
2024/01/26 00:51:55;;;;;;;4.10;1.10;;;6.30;99.90;;;;;;5019078;28;20022;-67
2024/01/26 00:54:21;;;;;;;4.63;0.85;;;6.40;99.90;;;;;;5014261;28;20020;-67
2024/01/26 00:56:47;;;;;;;2.75;0.82;;;6.40;99.90;;;;;;5015300;28;20061;-67
2024/01/26 00:59:12;;;;;;;4.93;1.10;;;6.50;99.90;;;;;;5024819;28;20409;-67
2024/01/26 01:01:38;;;;;;;4.00;1.25;;;6.50;99.90;;;;;;5024066;28;20020;-67
2024/01/26 01:04:05;;;;;;;4.53;1.52;;;6.60;99.90;;;;;;5024521;28;20456;-71
2024/01/26 01:06:30;;;;;;;14.73;6.72;;;6.60;99.90;;;;;;5023315;28;20036;-72
2024/01/26 01:08:56;;;;;;;5.05;1.77;;;6.50;99.90;;;;;;5023728;28;20508;-72
2024/01/26 01:11:22;;;;;;;28.67;15.50;;;6.50;99.90;;;;;;5018412;28;20029;-71
2024/01/26 01:13:47;;;;;;;41.63;24.42;;;6.50;99.90;;;;;;5022250;28;20656;-71
2024/01/26 01:16:13;;;;;;;6.32;3.63;;;6.50;99.90;;;;;;5020181;28;20037;-72
2024/01/26 01:18:39;;;;;;;6.22;1.52;;;6.60;99.90;;;;;;5015520;28;20057;-72
2024/01/26 01:21:05;;;;;;;3.75;1.20;;;6.50;99.90;;;;;;5014908;28;20126;-71
2024/01/26 01:23:30;;;;;;;4.97;1.48;;;6.40;99.90;;;;;;5013620;28;20440;-68
2024/01/26 01:25:56;;;;;;;3.03;1.23;;;6.30;99.90;;;;;;5008100;28;20029;-68
2024/01/26 01:28:22;;;;;;;7.38;1.50;;;6.10;99.90;;;;;;5007559;28;20036;-68
2024/01/26 01:30:47;;;;;;;4.45;1.00;;;6.10;99.90;;;;;;5015059;28;20041;-68
2024/01/26 01:33:13;;;;;;;3.25;1.30;;;6.10;99.90;;;;;;5015352;28;20332;-68
2024/01/26 01:35:38;;;;;;;2.83;1.15;;;6.10;99.90;;;;;;4993275;28;20021;-66
2024/01/26 01:38:04;;;;;;;8.00;1.33;;;6.10;99.90;;;;;;5013374;28;20060;-66
2024/01/26 01:40:30;;;;;;;5.63;1.10;;;6.10;99.90;;;;;;5012479;28;20095;-66
2024/01/26 01:42:55;;;;;;;9.68;1.55;;;6.10;99.90;;;;;;5007150;28;21189;-66
2024/01/26 01:45:22;;;;;;;4.68;1.42;;;6.20;99.90;;;;;;5008613;28;20032;-66
2024/01/26 01:47:47;;;;;;;3.85;1.00;;;6.10;99.90;;;;;;5015583;28;20029;-65
2024/01/26 01:50:13;;;;;;;5.80;1.15;;;5.80;99.90;;;;;;5019201;28;20040;-66
2024/01/26 01:52:43;;;;;;;4.10;1.45;;;5.70;99.90;;;;;;5007132;28;20037;-62
2024/01/26 01:55:11;;;;;;;4.93;1.30;;;5.60;99.90;;;;;;5014714;28;20033;-64
2024/01/26 01:57:44;;;;;;;5.43;1.25;;;5.60;99.90;;;;;;5012728;28;20112;-64
2024/01/26 02:00:15;;;;;;;4.43;1.10;;;5.50;99.90;;;;;;5018191;28;20053;-65
2024/01/26 02:02:45;;;;;;;5.22;1.27;;;5.30;99.90;;;;;;5017954;28;20019;-65
2024/01/26 02:05:12;;;;;;;5.68;1.38;;;5.10;99.90;;;;;;5010780;28;20080;-64
2024/01/26 02:07:38;;;;;;;3.20;1.10;;;5.10;99.90;;;;;;5014318;28;20051;-65
2024/01/26 02:10:07;;;;;;;4.82;1.40;;;4.90;99.90;;;;;;5013289;28;20028;-64
2024/01/26 02:12:33;;;;;;;3.60;1.27;;;4.80;99.90;;;;;;5017220;28;20260;-64
2024/01/26 02:14:58;;;;;;;6.28;1.40;;;4.80;99.90;;;;;;5005904;28;20911;-65
2024/01/26 02:17:31;;;;;;;5.05;1.02;;;4.80;99.90;;;;;;5015127;28;20270;-64
2024/01/26 02:19:57;;;;;;;6.13;1.27;;;4.70;99.90;;;;;;5013263;28;20250;-64
2024/01/26 02:22:23;;;;;;;4.20;0.85;;;4.60;99.90;;;;;;5017091;28;20540;-65
2024/01/26 02:24:48;;;;;;;4.97;1.38;;;4.60;99.90;;;;;;5015064;28;20379;-65
2024/01/26 02:27:14;;;;;;;3.97;1.00;;;4.50;99.90;;;;;;5009215;28;20484;-65
2024/01/26 02:29:39;;;;;;;7.43;1.13;;;4.50;99.90;;;;;;5021387;28;20036;-65
2024/01/26 02:32:05;;;;;;;5.60;1.30;;;4.50;99.90;;;;;;5013152;28;20063;-65
2024/01/26 02:34:31;;;;;;;5.15;1.75;;;4.50;99.90;;;;;;5014279;28;20409;-65
2024/01/26 02:36:57;;;;;;;3.05;1.13;;;4.50;99.90;;;;;;5001080;28;20033;-65
2024/01/26 02:39:22;;;;;;;6.93;1.58;;;4.50;99.90;;;;;;5017261;28;20120;-65
2024/01/26 02:41:48;;;;;;;6.47;1.50;;;4.50;99.90;;;;;;5015275;28;20028;-65
2024/01/26 02:44:13;;;;;;;7.40;1.63;;;4.70;99.90;;;;;;5020522;28;20405;-65
2024/01/26 02:46:39;;;;;;;3.45;1.50;;;4.80;99.90;;;;;;5017360;28;20163;-66
2024/01/26 02:49:05;;;;;;;34.10;11.38;;;4.90;99.90;;;;;;5009204;28;20116;-65
2024/01/26 02:51:31;;;;;;;38.80;13.05;;;5.00;99.90;;;;;;5009838;28;20543;-65
2024/01/26 02:53:59;;;;;;;14.82;4.95;;;5.10;99.90;;;;;;5016745;28;20037;-66
2024/01/26 02:56:25;;;;;;;7.90;2.20;;;5.20;99.90;;;;;;5012542;28;20320;-65
2024/01/26 02:58:50;;;;;;;8.77;2.33;;;5.10;99.90;;;;;;5012751;28;20044;-64
2024/01/26 03:01:16;;;;;;;3.38;1.60;;;5.10;99.90;;;;;;5013122;28;20356;-65
2024/01/26 03:03:42;;;;;;;4.47;1.65;;;5.10;99.90;;;;;;5030309;28;20051;-64
2024/01/26 03:06:11;;;;;;;7.43;1.67;;;5.00;99.90;;;;;;5019400;28;20034;-65
2024/01/26 03:08:37;;;;;;;6.07;1.40;;;5.00;99.90;;;;;;5027526;28;20499;-65
2024/01/26 03:11:03;;;;;;;6.85;1.77;;;5.00;99.90;;;;;;5024000;28;20061;-64
2024/01/26 03:13:29;;;;;;;3.42;1.42;;;4.90;99.90;;;;;;5027397;28;20112;-64
2024/01/26 03:15:55;;;;;;;5.30;1.45;;;4.90;99.90;;;;;;5025558;28;20074;-64
2024/01/26 03:18:21;;;;;;;4.20;1.70;;;4.70;99.90;;;;;;5016581;28;20267;-64
2024/01/26 03:20:47;;;;;;;7.70;1.70;;;4.60;99.90;;;;;;5009706;28;20067;-65
2024/01/26 03:23:13;;;;;;;4.10;1.40;;;4.50;99.90;;;;;;5014451;28;20610;-65
2024/01/26 03:25:39;;;;;;;4.93;1.60;;;4.40;99.90;;;;;;5015739;28;20045;-65
2024/01/26 03:28:06;;;;;;;4.70;1.27;;;4.30;99.90;;;;;;5013100;28;20033;-64
2024/01/26 03:30:32;;;;;;;5.75;1.60;;;4.30;99.90;;;;;;4999734;28;20130;-66
2024/01/26 03:32:58;;;;;;;4.35;1.65;;;4.30;99.90;;;;;;5015758;28;20033;-65
2024/01/26 03:35:23;;;;;;;5.65;1.70;;;4.20;99.90;;;;;;5015452;28;20037;-65
2024/01/26 03:37:49;;;;;;;4.10;1.35;;;4.20;99.90;;;;;;5014630;28;20044;-67
2024/01/26 03:40:15;;;;;;;6.45;1.30;;;4.10;99.90;;;;;;5008346;28;20643;-68
2024/01/26 03:42:41;;;;;;;3.35;1.17;;;4.10;99.90;;;;;;5002804;28;20029;-67
2024/01/26 03:45:07;;;;;;;6.38;1.10;;;4.10;99.90;;;;;;5014653;28;20032;-67
2024/01/26 03:47:33;;;;;;;4.97;1.50;;;4.10;99.90;;;;;;5016068;28;20438;-67
2024/01/26 03:49:59;;;;;;;6.10;2.20;;;4.00;99.90;;;;;;5019018;28;20110;-67
2024/01/26 03:52:24;;;;;;;11.02;4.13;;;4.00;99.90;;;;;;5009362;28;20526;-66
2024/01/26 03:54:50;;;;;;;11.32;3.97;;;4.00;99.90;;;;;;5020832;28;20036;-67
2024/01/26 03:57:15;;;;;;;3.90;1.23;;;4.10;99.90;;;;;;5020056;28;20503;-67
2024/01/26 03:59:41;;;;;;;4.45;1.58;;;4.10;99.90;;;;;;5017368;28;20037;-67
2024/01/26 04:02:06;;;;;;;7.07;1.67;;;4.10;99.90;;;;;;5017522;28;20040;-66
2024/01/26 04:04:32;;;;;;;3.53;1.05;;;4.00;99.90;;;;;;5022226;28;20048;-67
2024/01/26 04:06:58;;;;;;;5.18;1.85;;;3.90;99.90;;;;;;5021016;28;20287;-67
2024/01/26 04:09:23;;;;;;;6.20;1.55;;;3.90;99.90;;;;;;5016265;28;20576;-67
2024/01/26 04:11:49;;;;;;;4.22;1.45;;;4.00;99.90;;;;;;5017306;28;20036;-67
2024/01/26 04:14:14;;;;;;;3.50;1.45;;;4.00;99.90;;;;;;5017600;28;20129;-67
2024/01/26 04:16:40;;;;;;;6.28;1.48;;;3.90;99.90;;;;;;5017273;28;20532;-67
2024/01/26 04:19:05;;;;;;;4.35;1.30;;;3.90;99.90;;;;;;5026414;28;20423;-68
2024/01/26 04:21:31;;;;;;;4.55;1.23;;;3.90;99.90;;;;;;5038889;28;20150;-67
2024/01/26 04:23:57;;;;;;;3.97;1.35;;;3.90;99.90;;;;;;5047254;28;20032;-67
2024/01/26 04:26:23;;;;;;;2.47;0.77;;;3.90;99.90;;;;;;5039065;28;20024;-67
2024/01/26 04:28:48;;;;;;;5.20;1.52;;;3.80;99.90;;;;;;5021755;28;20082;-68
2024/01/26 04:31:14;;;;;;;4.40;1.13;;;3.90;99.90;;;;;;5036678;28;20536;-67
2024/01/26 04:33:40;;;;;;;2.33;0.80;;;3.90;99.90;;;;;;5040275;28;20032;-67
2024/01/26 04:36:08;;;;;;;6.97;1.27;;;3.90;99.90;;;;;;5038794;28;20032;-68
2024/01/26 04:38:37;;;;;;;7.18;1.35;;;4.00;99.90;;;;;;5039099;28;20052;-68
2024/01/26 04:41:03;;;;;;;5.18;1.30;;;4.00;99.90;;;;;;5038347;28;20299;-68
2024/01/26 04:43:29;;;;;;;5.57;1.45;;;4.00;99.90;;;;;;5041435;28;20024;-68
2024/01/26 04:45:55;;;;;;;1.55;0.90;;;4.00;99.90;;;;;;5036998;28;20532;-68
2024/01/26 04:48:21;;;;;;;6.80;1.58;;;3.90;99.90;;;;;;5032355;28;20035;-68
2024/01/26 04:50:47;;;;;;;3.85;1.27;;;3.90;99.90;;;;;;5035299;28;20036;-68
2024/01/26 04:53:12;;;;;;;4.25;1.17;;;3.90;99.90;;;;;;5040298;28;20523;-68
2024/01/26 04:55:38;;;;;;;5.60;1.52;;;3.90;99.90;;;;;;5043080;28;20032;-68
2024/01/26 04:58:04;;;;;;;3.42;1.00;;;3.90;99.90;;;;;;5042607;28;20032;-68
2024/01/26 05:00:30;;;;;;;4.97;1.50;;;3.80;99.90;;;;;;5037794;28;20040;-68
2024/01/26 05:02:56;;;;;;;4.75;1.40;;;3.80;99.90;;;;;;5040325;28;20036;-68
2024/01/26 05:05:21;;;;;;;7.15;1.65;;;3.80;99.90;;;;;;5031894;28;20055;-68
2024/01/26 05:07:47;;;;;;;4.90;1.77;;;3.80;99.90;;;;;;5038450;28;20028;-68
2024/01/26 05:10:13;;;;;;;5.43;1.10;;;3.70;99.90;;;;;;5043147;28;20727;-68
2024/01/26 05:12:38;;;;;;;3.38;1.20;;;3.80;99.90;;;;;;5043511;28;20029;-68
2024/01/26 05:15:07;;;;;;;7.45;1.30;;;3.80;99.90;;;;;;5044393;28;20059;-68
2024/01/26 05:17:33;;;;;;;6.78;1.08;;;3.70;99.90;;;;;;5038851;28;20093;-68
2024/01/26 05:19:58;;;;;;;5.53;1.33;;;3.70;99.90;;;;;;5036847;28;20060;-68
2024/01/26 05:22:24;;;;;;;13.60;1.85;;;3.70;99.90;;;;;;5034896;28;20053;-68
2024/01/26 05:24:50;;;;;;;8.63;1.85;;;3.70;99.90;;;;;;5038575;28;20737;-68
2024/01/26 05:27:16;;;;;;;1.90;1.08;;;3.70;99.90;;;;;;5033082;28;20032;-67
2024/01/26 05:29:42;;;;;;;4.13;1.73;;;3.80;99.90;;;;;;5020816;28;20122;-67
2024/01/26 05:32:07;;;;;;;3.88;1.17;;;3.80;99.90;;;;;;5034350;28;20027;-66
2024/01/26 05:34:33;;;;;;;3.40;1.25;;;3.70;99.90;;;;;;5021293;28;20027;-67
2024/01/26 05:36:59;;;;;;;4.20;1.83;;;3.70;99.90;;;;;;5037269;28;20040;-66
2024/01/26 05:39:28;;;;;;;6.38;1.58;;;3.70;99.90;;;;;;5034334;28;20581;-66
2024/01/26 05:41:54;;;;;;;8.63;1.52;;;3.70;99.90;;;;;;5035707;28;20024;-68
2024/01/26 05:44:20;;;;;;;6.60;1.52;;;3.70;99.90;;;;;;5035601;28;20101;-68
2024/01/26 05:46:45;;;;;;;5.65;1.33;;;3.80;99.90;;;;;;5037081;28;20132;-68
2024/01/26 05:49:11;;;;;;;8.13;1.73;;;3.80;99.90;;;;;;5037679;28;20029;-68
2024/01/26 05:51:37;;;;;;;6.70;1.08;;;3.70;99.90;;;;;;5038707;28;20009;-70
2024/01/26 05:54:02;;;;;;;4.68;1.58;;;3.70;99.90;;;;;;5031697;28;20091;-72
2024/01/26 05:56:28;;;;;;;7.65;1.50;;;3.60;99.90;;;;;;5032710;28;20021;-74
2024/01/26 05:58:54;;;;;;;3.78;1.17;;;3.60;99.90;;;;;;5033411;28;20048;-68
2024/01/26 06:01:19;;;;;;;3.17;1.25;;;3.60;99.90;;;;;;5042028;28;20024;-68
2024/01/26 06:03:45;;;;;;;2.88;1.27;;;3.60;99.90;;;;;;5043142;28;20028;-68
2024/01/26 06:06:11;;;;;;;4.03;1.20;;;3.70;99.90;;;;;;5043574;28;20545;-68
2024/01/26 06:08:39;;;;;;;4.22;1.30;;;3.80;99.90;;;;;;5044897;28;20043;-67
2024/01/26 06:11:05;;;;;;;3.70;1.17;;;3.80;99.90;;;;;;5048521;28;20090;-66
2024/01/26 06:13:31;;;;;;;4.97;1.52;;;3.80;99.90;;;;;;5041026;28;20688;-65
2024/01/26 06:15:56;;;;;;;7.88;2.00;;;3.70;99.90;;;;;;5037234;28;20037;-66
2024/01/26 06:18:22;;;;;;;7.93;2.78;;;3.80;99.90;;;;;;5039754;28;20048;-65
2024/01/26 06:20:47;;;;;;;4.20;1.75;;;3.80;99.90;;;;;;5003608;28;20051;-63
2024/01/26 06:23:13;;;;;;;3.60;1.50;;;3.70;99.90;;;;;;5019493;28;20031;-62
2024/01/26 06:25:39;;;;;;;5.53;1.15;;;3.70;99.90;;;;;;4997973;28;20143;-68
2024/01/26 06:28:04;;;;;;;3.92;1.30;;;3.60;99.90;;;;;;5016314;28;20515;-67
2024/01/26 06:30:30;;;;;;;5.03;1.33;;;3.60;99.90;;;;;;5012010;28;20087;-67
2024/01/26 06:32:56;;;;;;;3.55;1.40;;;3.50;99.90;;;;;;5017963;28;20040;-67
2024/01/26 06:35:21;;;;;;;7.50;1.48;;;3.50;99.90;;;;;;5005600;28;20030;-66
2024/01/26 06:37:47;;;;;;;2.85;1.02;;;3.50;99.90;;;;;;5016561;28;20152;-66
2024/01/26 06:40:13;;;;;;;6.53;1.30;;;3.60;99.90;;;;;;5009125;28;20146;-66
2024/01/26 06:42:42;;;;;;;9.80;1.50;;;3.60;99.90;;;;;;5015515;28;20037;-66
2024/01/26 06:45:13;;;;;;;7.00;1.65;;;3.60;99.90;;;;;;5017662;28;21335;-66
2024/01/26 06:47:39;;;;;;;7.72;1.35;;;3.60;99.90;;;;;;5024624;28;20398;-66
2024/01/26 06:50:06;;;;;;;3.17;1.10;;;3.70;99.90;;;;;;5021978;28;20051;-67
2024/01/26 06:52:32;;;;;;;2.78;0.90;;;3.70;99.90;;;;;;5021846;28;20093;-67
2024/01/26 06:54:58;;;;;;;6.35;1.10;;;3.70;99.90;;;;;;5023767;28;20386;-67
2024/01/26 06:57:24;;;;;;;5.60;0.95;;;3.80;99.90;;;;;;5027313;28;20021;-67
2024/01/26 06:59:49;;;;;;;3.38;0.93;;;3.90;99.90;;;;;;5019004;28;20685;-67
2024/01/26 07:02:15;;;;;;;6.15;1.60;;;3.80;99.90;;;;;;5021328;28;20021;-66
2024/01/26 07:04:41;;;;;;;3.08;1.02;;;3.90;99.90;;;;;;5022465;28;20025;-66
2024/01/26 07:07:06;;;;;;;6.95;1.58;;;3.80;99.90;;;;;;5026586;28;20035;-66
2024/01/26 07:09:32;;;;;;;4.93;1.33;;;3.90;99.90;;;;;;5023741;28;20417;-66
2024/01/26 07:11:58;;;;;;;5.63;1.48;;;3.90;99.90;;;;;;5025487;28;20469;-66
2024/01/26 07:14:24;;;;;;;6.60;1.20;;;4.00;99.90;;;;;;5019137;28;20477;-66
2024/01/26 07:16:50;;;;;;;6.72;1.10;;;4.00;99.90;;;;;;5029547;28;20108;-63
2024/01/26 07:19:15;;;;;;;1.65;1.00;;;4.10;99.90;;;;;;5031521;28;20638;-64
2024/01/26 07:21:41;;;;;;;3.58;1.48;;;4.10;99.90;;;;;;5020519;28;20123;-64
2024/01/26 07:24:08;;;;;;;4.82;1.10;;;4.20;99.90;;;;;;5024818;28;20041;-65
2024/01/26 07:26:34;;;;;;;4.13;1.10;;;4.20;99.90;;;;;;5024652;28;20074;-65
2024/01/26 07:28:59;;;;;;;4.63;1.20;;;4.30;99.90;;;;;;5027740;28;20041;-65
2024/01/26 07:31:25;;;;;;;4.63;1.50;;;4.50;99.90;;;;;;5026041;28;20035;-67
2024/01/26 07:33:50;;;;;;;2.30;1.30;;;4.60;99.90;;;;;;5027207;28;20493;-67
2024/01/26 07:36:16;;;;;;;5.68;1.42;;;4.80;99.90;;;;;;5024951;28;20057;-66
2024/01/26 07:38:42;;;;;;;4.40;1.20;;;5.00;99.90;;;;;;5025619;28;20029;-67
2024/01/26 07:41:07;;;;;;;3.42;0.80;;;5.10;99.90;;;;;;5010529;28;20033;-67
2024/01/26 07:43:33;;;;;;;4.70;1.10;;;5.20;99.90;;;;;;5029384;28;20040;-67
2024/01/26 07:45:59;;;;;;;4.95;0.88;;;5.30;99.90;;;;;;5017179;28;20634;-69
2024/01/26 07:48:24;;;;;;;6.88;1.30;;;5.50;99.90;;;;;;5025420;28;20385;-69
2024/01/26 07:50:50;;;;;;;3.63;1.65;;;5.70;99.90;;;;;;5022806;28;20053;-69
2024/01/26 07:53:16;;;;;;;1.85;0.70;;;5.80;99.90;;;;;;5021080;28;20044;-70
2024/01/26 07:55:41;;;;;;;3.15;0.93;;;6.00;99.90;;;;;;5020911;28;20492;-70
2024/01/26 07:58:07;;;;;;;4.13;1.08;;;6.10;99.90;;;;;;5019380;28;20796;-70
2024/01/26 08:00:33;;;;;;;2.00;0.90;;;6.30;99.90;;;;;;5006875;28;20048;-70
2024/01/26 08:02:59;;;;;;;2.70;0.77;;;6.50;99.90;;;;;;5014522;28;20029;-69
2024/01/26 08:05:24;;;;;;;1.95;0.60;;;6.60;99.90;;;;;;5013193;28;20103;-70
2024/01/26 08:07:50;;;;;;;2.90;0.60;;;6.80;99.90;;;;;;5008304;28;20025;-70
2024/01/26 08:10:16;;;;;;;4.18;0.70;;;7.00;99.90;;;;;;4996753;28;20571;-69
2024/01/26 08:12:42;;;;;;;5.03;1.23;;;7.10;99.90;;;;;;5006610;28;20032;-69
2024/01/26 08:15:07;;;;;;;3.03;1.42;;;7.40;99.90;;;;;;5010050;28;20037;-69
2024/01/26 08:17:33;;;;;;;2.45;0.63;;;7.70;99.90;;;;;;5013164;28;20036;-69
2024/01/26 08:20:01;;;;;;;2.03;0.52;;;7.80;99.90;;;;;;5020504;28;20048;-64
2024/01/26 08:22:27;;;;;;;2.53;0.68;;;7.90;99.90;;;;;;5025069;28;20424;-64
2024/01/26 08:24:52;;;;;;;4.45;0.80;;;7.80;99.90;;;;;;5033057;28;20482;-64
2024/01/26 08:27:18;;;;;;;2.90;0.90;;;8.10;99.90;;;;;;5048255;28;20048;-65
2024/01/26 08:29:44;;;;;;;2.80;0.65;;;8.30;99.90;;;;;;5038475;28;20392;-65
2024/01/26 08:32:09;;;;;;;4.40;0.75;;;8.40;99.90;;;;;;5039059;28;20070;-65
2024/01/26 08:34:38;;;;;;;2.97;0.60;;;8.50;99.90;;;;;;5044022;28;20388;-65
2024/01/26 08:37:04;;;;;;;1.58;0.52;;;8.60;99.90;;;;;;5041205;28;20117;-65
2024/01/26 08:39:30;;;;;;;3.42;0.73;;;8.70;99.90;;;;;;5031472;28;20517;-65
2024/01/26 08:41:56;;;;;;;5.22;0.73;;;8.60;99.90;;;;;;5029008;28;20020;-64
2024/01/26 08:44:22;;;;;;;2.55;0.90;;;8.40;99.90;;;;;;5037905;28;20622;-65
2024/01/26 08:46:48;;;;;;;1.40;0.68;;;8.20;99.90;;;;;;5036951;28;20063;-65
2024/01/26 08:49:14;;;;;;;2.70;0.60;;;8.20;99.90;;;;;;5035095;28;20105;-64
2024/01/26 08:51:40;;;;;;;1.13;0.55;;;8.20;99.90;;;;;;5038655;28;20481;-64
2024/01/26 08:54:07;;;;;;;2.15;0.85;;;8.20;99.90;;;;;;5036098;28;20043;-64
2024/01/26 08:56:33;;;;;;;1.55;0.52;;;8.20;99.90;;;;;;5043227;28;20021;-64
2024/01/26 08:58:59;;;;;;;1.63;0.35;;;8.20;99.90;;;;;;5043974;28;21535;-68
2024/01/26 09:01:25;;;;;;;3.08;1.90;;;8.20;99.90;;;;;;5043618;28;20024;-68
2024/01/26 09:03:51;;;;;;;2.40;0.32;;;8.20;99.90;;;;;;5047105;28;20020;-68
2024/01/26 09:06:17;;;;;;;1.13;0.50;;;8.20;99.90;;;;;;5040235;28;20029;-69
2024/01/26 09:08:42;;;;;;;0.93;0.38;;;8.20;99.90;;;;;;5042530;28;20027;-69
2024/01/26 09:11:09;;;;;;;0.95;0.38;;;8.20;99.90;;;;;;5043812;28;20138;-68
2024/01/26 09:13:34;;;;;;;0.65;0.35;;;8.10;99.90;;;;;;5044662;28;20028;-69
2024/01/26 09:16:00;;;;;;;2.70;0.60;;;8.10;99.90;;;;;;5043997;28;20517;-66
2024/01/26 09:18:25;;;;;;;1.00;0.40;;;8.00;99.90;;;;;;5022013;28;20086;-68
2024/01/26 09:20:51;;;;;;;0.63;0.43;;;8.10;99.90;;;;;;5019863;28;20033;-68
2024/01/26 09:23:18;;;;;;;3.08;0.32;;;8.10;99.90;;;;;;5021840;28;20118;-66
2024/01/26 09:25:45;;;;;;;2.72;0.45;;;8.20;99.90;;;;;;5023396;28;20505;-65
2024/01/26 09:28:11;;;;;;;1.52;0.50;;;8.20;99.90;;;;;;5019094;28;20413;-66
2024/01/26 09:30:36;;;;;;;4.03;0.77;;;8.20;99.90;;;;;;5026231;28;20026;-66
2024/01/26 09:33:02;;;;;;;1.63;0.52;;;8.20;99.90;;;;;;5018630;28;20032;-66
2024/01/26 09:35:28;;;;;;;2.35;0.60;;;8.20;99.90;;;;;;5023569;28;20040;-66
2024/01/26 09:37:53;;;;;;;2.55;0.63;;;8.20;99.90;;;;;;5025911;28;20041;-66
2024/01/26 09:40:22;;;;;;;0.98;0.50;;;8.20;99.90;;;;;;5018289;28;20033;-67
2024/01/26 09:42:48;;;;;;;1.73;0.50;;;8.10;99.90;;;;;;5024493;28;20037;-66
2024/01/26 09:45:13;;;;;;;6.78;0.52;;;8.00;99.90;;;;;;5028713;28;20472;-67
2024/01/26 09:47:40;;;;;;;5.85;0.60;;;7.90;99.90;;;;;;5022373;28;20048;-66
2024/01/26 09:50:11;;;;;;;2.67;0.40;;;8.00;99.90;;;;;;5021624;28;20463;-66
2024/01/26 09:52:37;;;;;;;1.98;0.90;;;8.10;99.90;;;;;;5023066;28;20504;-66
2024/01/26 09:55:05;;;;;;;2.17;0.60;;;8.00;99.90;;;;;;5017242;28;20271;-66
2024/01/26 09:57:32;;;;;;;1.25;0.45;;;7.90;99.90;;;;;;5024646;28;20017;-67
2024/01/26 09:59:58;;;;;;;2.00;0.40;;;7.90;99.90;;;;;;5021049;28;20849;-67
2024/01/26 10:02:25;;;;;;;1.95;0.57;;;7.80;99.90;;;;;;5023352;28;20100;-67
2024/01/26 10:04:50;;;;;;;0.80;0.40;;;7.80;99.90;;;;;;5020202;28;20424;-67
2024/01/26 10:07:16;;;;;;;1.50;0.55;;;7.80;99.90;;;;;;5015579;28;20636;-66
2024/01/26 10:09:42;;;;;;;3.90;2.00;;;7.90;99.90;;;;;;5007841;28;20033;-67
2024/01/26 10:12:09;;;;;;;2.70;0.40;;;7.90;99.90;;;;;;5018372;28;20025;-66
2024/01/26 10:14:36;;;;;;;2.33;0.50;;;7.90;99.90;;;;;;5018532;28;20441;-65
2024/01/26 10:17:02;;;;;;;2.28;0.70;;;7.90;99.90;;;;;;5024036;28;20116;-65
2024/01/26 10:19:28;;;;;;;2.58;0.65;;;8.00;99.90;;;;;;5023337;28;20045;-68
2024/01/26 10:21:54;;;;;;;1.33;0.50;;;7.90;99.90;;;;;;5022821;28;20025;-68
2024/01/26 10:24:24;;;;;;;1.13;0.43;;;7.90;99.90;;;;;;5021306;28;20137;-69
2024/01/26 10:26:53;;;;;;;2.30;0.57;;;7.80;99.90;;;;;;5020578;28;20029;-69
2024/01/26 10:29:20;;;;;;;2.22;0.60;;;7.80;99.90;;;;;;5025398;28;20024;-69
2024/01/26 10:31:47;;;;;;;2.58;0.70;;;7.80;99.90;;;;;;5019999;28;20107;-69
2024/01/26 10:34:14;;;;;;;1.98;0.75;;;7.90;99.90;;;;;;5023447;28;20424;-68
2024/01/26 10:36:48;;;;;;;4.97;0.82;;;8.00;99.90;;;;;;5025358;28;20018;-69
2024/01/26 10:39:22;;;;;;;1.60;0.93;;;8.00;99.90;;;;;;5015624;28;20041;-68
2024/01/26 10:41:50;;;;;;;1.33;0.47;;;7.90;99.90;;;;;;5021942;28;20033;-69
2024/01/26 10:44:16;;;;;;;7.55;1.85;;;7.90;99.90;;;;;;5023798;28;20042;-68
2024/01/26 10:46:43;;;;;;;3.95;0.57;;;7.90;99.90;;;;;;5016182;28;20566;-71
2024/01/26 10:49:10;;;;;;;1.95;0.60;;;7.90;99.90;;;;;;5022499;28;20039;-69
2024/01/26 10:51:40;;;;;;;3.95;0.73;;;7.90;99.90;;;;;;5024124;28;20569;-65
2024/01/26 10:54:09;;;;;;;4.03;1.42;;;7.90;99.90;;;;;;5015184;28;20493;-69
2024/01/26 10:56:35;;;;;;;2.47;0.70;;;7.80;99.90;;;;;;5023932;28;20079;-68
2024/01/26 10:59:01;;;;;;;3.08;0.90;;;7.80;99.90;;;;;;5021874;28;20774;-69
2024/01/26 11:01:29;;;;;;;2.78;0.75;;;7.90;99.90;;;;;;5020520;28;20112;-64
2024/01/26 11:03:58;;;;;;;2.92;0.80;;;7.90;99.90;;;;;;5010970;28;20587;-64
2024/01/26 11:06:26;;;;;;;2.53;1.10;;;7.90;99.90;;;;;;5023824;28;20103;-67
2024/01/26 11:09:00;;;;;;;3.72;1.23;;;7.90;99.90;;;;;;5023713;28;20033;-66
2024/01/26 11:11:33;;;;;;;2.42;1.00;;;7.90;99.90;;;;;;5018657;28;20120;-67
2024/01/26 11:14:02;;;;;;;3.70;0.85;;;8.00;99.90;;;;;;5022254;28;20519;-67
2024/01/26 11:16:33;;;;;;;3.63;0.95;;;8.00;99.90;;;;;;5023326;28;20554;-67
2024/01/26 11:18:58;;;;;;;2.03;0.70;;;7.90;99.90;;;;;;5021100;28;20393;-67
2024/01/26 11:21:24;;;;;;;2.17;0.75;;;7.90;99.90;;;;;;5015048;28;20040;-66
2024/01/26 11:23:50;;;;;;;4.53;0.90;;;8.00;99.90;;;;;;5021897;28;20119;-67
2024/01/26 11:26:17;;;;;;;3.67;1.00;;;8.00;99.90;;;;;;5020532;28;21477;-65
2024/01/26 11:28:45;;;;;;;4.20;1.20;;;7.90;99.90;;;;;;5025712;28;20036;-66
2024/01/26 11:31:12;;;;;;;1.48;0.68;;;7.90;99.90;;;;;;5027071;28;20090;-62
2024/01/26 11:33:39;;;;;;;3.17;0.80;;;7.90;99.90;;;;;;5023852;28;20049;-65
2024/01/26 11:36:11;;;;;;;3.75;1.23;;;7.90;99.90;;;;;;5013583;28;20022;-63
2024/01/26 11:38:38;;;;;;;4.22;1.00;;;7.90;99.90;;;;;;5022433;28;20037;-65
2024/01/26 11:41:04;;;;;;;2.42;0.60;;;7.80;99.90;;;;;;5022762;28;20238;-65
2024/01/26 11:43:30;;;;;;;3.72;1.02;;;7.90;99.90;;;;;;5013991;28;20547;-67
2024/01/26 11:45:56;;;;;;;3.42;1.00;;;7.90;99.90;;;;;;5025938;28;20307;-67
2024/01/26 11:48:22;;;;;;;4.55;1.08;;;7.90;99.90;;;;;;5021288;28;20113;-66
2024/01/26 11:50:49;;;;;;;2.78;0.98;;;7.80;99.90;;;;;;5024220;28;20633;-65
2024/01/26 11:53:17;;;;;;;2.22;1.00;;;7.80;99.90;;;;;;5027727;28;20568;-68
2024/01/26 11:55:43;;;;;;;4.55;1.23;;;7.80;99.90;;;;;;5023763;28;20532;-65
2024/01/26 11:58:10;;;;;;;2.80;0.75;;;7.80;99.90;;;;;;5023025;28;20450;-68
2024/01/26 12:00:36;;;;;;;4.47;0.90;;;7.70;99.90;;;;;;5010321;28;20513;-64
2024/01/26 12:03:05;;;;;;;1.98;0.80;;;7.70;99.90;;;;;;5021830;28;20042;-68
2024/01/26 12:05:33;;;;;;;3.92;1.30;;;7.60;99.90;;;;;;5013242;28;20033;-65
2024/01/26 12:07:59;;;;;;;2.63;1.38;;;7.60;99.90;;;;;;5021979;28;20028;-66
2024/01/26 12:10:25;;;;;;;2.45;0.73;;;7.60;99.90;;;;;;5021219;28;20619;-65
2024/01/26 12:12:51;;;;;;;2.80;1.13;;;7.60;99.90;;;;;;5022303;28;20037;-67
2024/01/26 12:15:17;;;;;;;3.67;1.20;;;7.70;99.90;;;;;;5021503;28;20032;-67
2024/01/26 12:17:43;;;;;;;5.72;1.48;;;7.80;99.90;;;;;;5021704;28;20036;-67
2024/01/26 12:20:10;;;;;;;3.42;0.80;;;7.80;99.90;;;;;;5019998;28;20041;-62
2024/01/26 12:22:36;;;;;;;4.57;0.98;;;7.90;99.90;;;;;;5020474;28;20167;-63
2024/01/26 12:25:07;;;;;;;6.93;1.65;;;7.90;99.90;;;;;;5023559;28;20086;-69
2024/01/26 12:27:36;;;;;;;3.83;0.90;;;8.00;99.90;;;;;;5021947;28;20120;-69
2024/01/26 12:30:03;;;;;;;4.95;1.08;;;8.10;99.90;;;;;;5021224;28;20108;-69
2024/01/26 12:32:28;;;;;;;2.85;0.90;;;8.20;99.90;;;;;;5015417;28;20116;-69
2024/01/26 12:34:54;;;;;;;5.32;1.13;;;8.20;99.90;;;;;;5021513;28;20042;-69
2024/01/26 12:37:20;;;;;;;2.88;0.80;;;8.20;99.90;;;;;;5027260;28;20512;-68
2024/01/26 12:39:47;;;;;;;1.88;0.60;;;8.30;99.90;;;;;;5018121;28;20037;-69
2024/01/26 12:42:13;;;;;;;2.70;1.00;;;8.40;99.90;;;;;;5015478;28;20025;-69
2024/01/26 12:44:39;;;;;;;3.30;0.90;;;8.40;99.90;;;;;;5018204;28;20029;-68
2024/01/26 12:47:06;;;;;;;2.22;0.90;;;8.40;99.90;;;;;;5023716;28;20029;-69
2024/01/26 12:49:33;;;;;;;9.18;1.08;;;8.40;99.90;;;;;;5015263;28;20086;-69
2024/01/26 12:51:59;;;;;;;3.55;0.75;;;8.40;99.90;;;;;;5016491;28;20075;-68